M/V Crosby Hustler — WDA3941 — position and weather

sailwx.info

Track history (hours):
 
Tides and Currents Weather Stations Pressure Air Temp Water Temp Dewpoint Dewpoint Depression Visibility Wind Speed Wind Dir Waves Ship Positions

M/V Crosby Hustler

Owner: CROSBY INLAND MARINE LLC, GOLDEN MEADOW, LA. More information available from US FCC via Universal Licensing System and Coast Guard Vessel Documentation Center.

Last reported at 2015-May-19 09:33 UTC. Time now 2015-May-29 08:17 UTC.
Position N 29°30' W 094°52'.
Warning: this ship's position is 9 days out of date.

Length 18 m; draft 9 m.

Type: Tug. MMSI: 366804030.

Date/timePositionNaut miles runAvg speedWind from/ knotsBaromVisibWave heightAir tempDewpointWater temp
2015-May-19 09:33N 29°30' W 094°52'6 6.1
2015-May-19 08:33N 29°35' W 094°56'7 6.9
2015-May-19 07:33N 29°41' W 094°59'7 6.5
2015-May-19 06:33N 29°46' W 095°04'6 5.8
2015-May-19 05:33N 29°45' W 095°11'3 3.3
2015-May-19 04:31N 29°43' W 095°14'0 0.0
2015-May-19 03:31N 29°43' W 095°14'0 0.0
2015-May-19 02:31N 29°43' W 095°14'0 0.0
2015-May-19 01:31N 29°43' W 095°14'0 0.0
2015-May-19 00:31N 29°43' W 095°14'0 0.0
2015-May-18 23:31N 29°43' W 095°14'0 0.0
2015-May-18 22:31N 29°43' W 095°14'0 0.0
2015-May-18 21:31N 29°43' W 095°14'0 0.0
2015-May-18 20:31N 29°43' W 095°14'0 0.0
2015-May-18 19:33N 29°43' W 095°14'5 5.5
2015-May-18 18:34N 29°44' W 095°08'3 3.1
2015-May-18 17:33N 29°47' W 095°06'1 0.5
2015-May-18 16:29N 29°46' W 095°06'1 1.3
2015-May-18 15:32N 29°45' W 095°06'2 1.8
2015-May-18 14:22N 29°47' W 095°06'0 0.0
2015-May-18 13:31N 29°47' W 095°06'0 0.0
2015-May-18 12:31N 29°47' W 095°06'0 0.0
2015-May-18 11:31N 29°47' W 095°06'0 0.0
2015-May-18 10:25N 29°47' W 095°06'0 0.0
2015-May-18 09:28N 29°47' W 095°06'0 0.0
2015-May-18 08:31N 29°47' W 095°06'0 0.0
2015-May-18 07:31N 29°47' W 095°06'0 0.0
2015-May-18 06:28N 29°47' W 095°06'0 0.0
2015-May-18 05:33N 29°47' W 095°06'2 0.6
2015-May-18 02:06N 29°45' W 095°06'0 0.7
2015-May-18 01:33N 29°45' W 095°06'2 1.7
2015-May-18 00:32N 29°47' W 095°06'0 0.0
2015-May-17 23:31N 29°47' W 095°06'0 0.0
2015-May-17 22:31N 29°47' W 095°06'0 0.0
2015-May-17 21:28N 29°47' W 095°06'0 0.0
2015-May-17 20:25N 29°47' W 095°06'0 0.0
2015-May-17 19:19N 29°47' W 095°06'0 0.0
2015-May-17 18:31N 29°47' W 095°06'0 0.0
2015-May-17 17:31N 29°47' W 095°06'1 0.5
2015-May-17 16:27N 29°46' W 095°06'1 0.6
2015-May-17 15:32N 29°47' W 095°06'0 0.0
2015-May-17 14:32N 29°47' W 095°06'0 0.0
2015-May-17 13:32N 29°47' W 095°06'0 0.0
2015-May-17 12:32N 29°47' W 095°06'0 0.0
2015-May-17 11:32N 29°47' W 095°06'0 0.0
2015-May-17 10:32N 29°47' W 095°06'0 0.0
2015-May-17 09:32N 29°47' W 095°06'0 0.0
2015-May-17 08:29N 29°47' W 095°06'0 0.0
2015-May-17 07:32N 29°47' W 095°06'0 0.0
2015-May-17 06:23N 29°47' W 095°06'0 0.0
2015-May-17 05:23N 29°47' W 095°06'0 0.0
2015-May-17 04:32N 29°47' W 095°06'0 0.0
2015-May-17 03:32N 29°47' W 095°06'0 0.0
2015-May-17 02:20N 29°47' W 095°06'0 0.0
2015-May-17 01:32N 29°47' W 095°06'0 0.0
2015-May-17 00:32N 29°47' W 095°06'3 2.8
2015-May-16 23:33N 29°45' W 095°04'6 5.9
2015-May-16 22:33N 29°41' W 094°59'6 6.3
2015-May-16 21:33N 29°35' W 094°56'14 6.8
2015-May-16 19:29N 29°23' W 094°48'  
Track history (hours):
 
Tides and Currents Weather Stations Pressure Air Temp Water Temp Dewpoint Dewpoint Depression Visibility Wind Speed Wind Dir Waves Ship Positions

M/V Crosby Hustler

Owner: CROSBY INLAND MARINE LLC, GOLDEN MEADOW, LA. More information available from US FCC via Universal Licensing System and Coast Guard Vessel Documentation Center.

Last reported at 2015-May-19 09:33 UTC. Time now 2015-May-29 08:17 UTC.
Position N 29°30' W 094°52'.
Warning: this ship's position is 9 days out of date.

Length 18 m; draft 9 m.

Type: Tug. MMSI: 366804030.

Date/timePositionNaut miles runAvg speedWind from/ knotsBaromVisibWave heightAir tempDewpointWater temp
2015-May-19 09:33N 29°30' W 094°52'6 6.1
2015-May-19 08:33N 29°35' W 094°56'7 6.9
2015-May-19 07:33N 29°41' W 094°59'7 6.5
2015-May-19 06:33N 29°46' W 095°04'6 5.8
2015-May-19 05:33N 29°45' W 095°11'3 3.3
2015-May-19 04:31N 29°43' W 095°14'0 0.0
2015-May-19 03:31N 29°43' W 095°14'0 0.0
2015-May-19 02:31N 29°43' W 095°14'0 0.0
2015-May-19 01:31N 29°43' W 095°14'0 0.0
2015-May-19 00:31N 29°43' W 095°14'0 0.0
2015-May-18 23:31N 29°43' W 095°14'0 0.0
2015-May-18 22:31N 29°43' W 095°14'0 0.0
2015-May-18 21:31N 29°43' W 095°14'0 0.0
2015-May-18 20:31N 29°43' W 095°14'0 0.0
2015-May-18 19:33N 29°43' W 095°14'5 5.5
2015-May-18 18:34N 29°44' W 095°08'3 3.1
2015-May-18 17:33N 29°47' W 095°06'1 0.5
2015-May-18 16:29N 29°46' W 095°06'1 1.3
2015-May-18 15:32N 29°45' W 095°06'2 1.8
2015-May-18 14:22N 29°47' W 095°06'0 0.0
2015-May-18 13:31N 29°47' W 095°06'0 0.0
2015-May-18 12:31N 29°47' W 095°06'0 0.0
2015-May-18 11:31N 29°47' W 095°06'0 0.0
2015-May-18 10:25N 29°47' W 095°06'0 0.0
2015-May-18 09:28N 29°47' W 095°06'0 0.0
2015-May-18 08:31N 29°47' W 095°06'0 0.0
2015-May-18 07:31N 29°47' W 095°06'0 0.0
2015-May-18 06:28N 29°47' W 095°06'0 0.0
2015-May-18 05:33N 29°47' W 095°06'2 0.6
2015-May-18 02:06N 29°45' W 095°06'0 0.7
2015-May-18 01:33N 29°45' W 095°06'2 1.7
2015-May-18 00:32N 29°47' W 095°06'0 0.0
2015-May-17 23:31N 29°47' W 095°06'0 0.0
2015-May-17 22:31N 29°47' W 095°06'0 0.0
2015-May-17 21:28N 29°47' W 095°06'0 0.0
2015-May-17 20:25N 29°47' W 095°06'0 0.0
2015-May-17 19:19N 29°47' W 095°06'0 0.0
2015-May-17 18:31N 29°47' W 095°06'0 0.0
2015-May-17 17:31N 29°47' W 095°06'1 0.5
2015-May-17 16:27N 29°46' W 095°06'1 0.6
2015-May-17 15:32N 29°47' W 095°06'0 0.0
2015-May-17 14:32N 29°47' W 095°06'0 0.0
2015-May-17 13:32N 29°47' W 095°06'0 0.0
2015-May-17 12:32N 29°47' W 095°06'0 0.0
2015-May-17 11:32N 29°47' W 095°06'0 0.0
2015-May-17 10:32N 29°47' W 095°06'0 0.0
2015-May-17 09:32N 29°47' W 095°06'0 0.0
2015-May-17 08:29N 29°47' W 095°06'0 0.0
2015-May-17 07:32N 29°47' W 095°06'0 0.0
2015-May-17 06:23N 29°47' W 095°06'0 0.0
2015-May-17 05:23N 29°47' W 095°06'0 0.0
2015-May-17 04:32N 29°47' W 095°06'0 0.0
2015-May-17 03:32N 29°47' W 095°06'0 0.0
2015-May-17 02:20N 29°47' W 095°06'0 0.0
2015-May-17 01:32N 29°47' W 095°06'0 0.0
2015-May-17 00:32N 29°47' W 095°06'3 2.8
2015-May-16 23:33N 29°45' W 095°04'6 5.9
2015-May-16 22:33N 29°41' W 094°59'6 6.3
2015-May-16 21:33N 29°35' W 094°56'14 6.8
2015-May-16 19:29N 29°23' W 094°48'  

Dump ship's entire track history